Time;durP1;ratioP1;P1;durP2;ratioP2;P2;SDS_P1;SDS_P2;PMS_P1;PMS_P2;Temp;Humidity;BMP_temperature;BMP_pressure;BME280_temperature;BME280_humidity;BME280_pressure;Samples;Min_cycle;Max_cycle;Signal;HPM_P1;HPM_P2
2022/01/30 00:00:47;;;;;;;152.27;82.90;;;38.50;2201.60;;;;;;6188397;23;20000;-87
2022/01/30 00:03:15;;;;;;;145.63;89.40;;;38.40;2201.60;;;;;;6187530;23;20050;-85
2022/01/30 00:05:40;;;;;;;155.32;90.95;;;38.40;2201.60;;;;;;6188075;23;20004;-83
2022/01/30 00:08:06;;;;;;;155.90;91.53;;;38.40;2201.60;;;;;;6187848;23;20005;-82
2022/01/30 00:10:37;;;;;;;133.38;82.18;;;13.70;2201.60;;;;;;6187662;23;20016;-83
2022/01/30 00:13:05;;;;;;;136.30;85.35;;;38.40;2201.60;;;;;;6213831;23;20388;-80
2022/01/30 00:15:52;;;;;;;105.68;70.88;;;38.40;2201.60;;;;;;6187659;23;19997;-86
2022/01/30 00:20:59;;;;;;;97.78;60.72;;;13.70;2201.60;;;;;;6214496;23;19996;-85
2022/01/30 00:23:26;;;;;;;110.25;67.60;;;13.70;2201.60;;;;;;6187872;23;20000;-85
2022/01/30 00:25:55;;;;;;;99.22;58.65;;;38.40;2201.60;;;;;;6188074;23;20343;-85
2022/01/30 00:28:24;;;;;;;102.22;61.22;;;38.40;2201.60;;;;;;6215213;23;20024;-87
2022/01/30 00:30:50;;;;;;;98.53;59.45;;;13.70;2201.60;;;;;;6189377;23;20066;-87
2022/01/30 00:33:16;;;;;;;97.70;58.00;;;13.50;2201.60;;;;;;6189033;23;20001;-87
2022/01/30 00:35:42;;;;;;;98.88;60.42;;;13.70;2201.60;;;;;;6215258;23;19996;-89
2022/01/30 00:38:11;;;;;;;92.78;57.60;;;13.60;2201.60;;;;;;6188506;23;20432;-78
2022/01/30 00:40:38;;;;;;;104.82;60.85;;;13.60;2201.60;;;;;;6214499;23;20051;-85
2022/01/30 00:43:05;;;;;;;89.63;55.92;;;13.60;2201.60;;;;;;6188294;23;20004;-80
2022/01/30 00:45:30;;;;;;;87.22;56.50;;;13.60;2201.60;;;;;;6187917;23;20027;-78
2022/01/30 00:47:56;;;;;;;96.13;58.17;;;13.70;2201.60;;;;;;6187434;23;20435;-82
2022/01/30 00:50:23;;;;;;;104.90;62.45;;;13.70;2201.60;;;;;;6187394;23;20020;-78
2022/01/30 00:52:53;;;;;;;108.00;60.78;;;13.70;2201.60;;;;;;6187552;23;20005;-81
2022/01/30 00:55:19;;;;;;;109.07;65.65;;;38.40;2201.60;;;;;;6187317;23;20004;-80
2022/01/30 00:57:45;;;;;;;114.28;64.55;;;38.40;2201.60;;;;;;6187462;23;20005;-80
2022/01/30 01:00:11;;;;;;;106.80;64.57;;;38.50;2201.60;;;;;;6187091;23;20310;-82
2022/01/30 01:02:37;;;;;;;113.35;67.07;;;38.50;2201.60;;;;;;6186617;23;19997;-80
2022/01/30 01:05:05;;;;;;;108.65;63.40;;;38.50;2201.60;;;;;;6186056;23;20075;-84
2022/01/30 01:07:33;;;;;;;103.63;61.30;;;38.40;2201.60;;;;;;6187611;23;20008;-85
2022/01/30 01:10:07;;;;;;;104.18;61.40;;;38.40;2201.60;;;;;;6187118;23;20091;-82
2022/01/30 01:12:52;;;;;;;95.25;58.65;;;38.40;2201.60;;;;;;6186886;23;19997;-81
2022/01/30 01:23:47;;;;;;;84.60;47.17;;;13.70;2201.60;;;;;;6213696;23;19907;-78
2022/01/30 01:26:14;;;;;;;86.10;53.38;;;13.70;2201.60;;;;;;6187134;23;20023;-78
2022/01/30 01:28:40;;;;;;;90.05;51.45;;;38.40;2201.60;;;;;;6213522;23;20023;-82
2022/01/30 01:31:06;;;;;;;100.10;53.67;;;38.40;2201.60;;;;;;6187386;23;20039;-79
2022/01/30 01:36:06;;;;;;;91.15;52.45;;;13.70;2201.60;;;;;;6214008;23;19997;-78
2022/01/30 01:38:32;;;;;;;72.45;44.10;;;13.70;2201.60;;;;;;6186412;23;20008;-84
2022/01/30 01:40:58;;;;;;;60.13;37.25;;;13.60;2201.60;;;;;;6187919;23;20000;-85
2022/01/30 01:43:25;;;;;;;66.75;40.38;;;13.70;2201.60;;;;;;6187992;23;20001;-84
2022/01/30 01:45:53;;;;;;;70.80;43.17;;;13.70;2201.60;;;;;;6187450;23;20000;-80
2022/01/30 01:48:20;;;;;;;72.07;45.55;;;13.60;2201.60;;;;;;6187274;23;20088;-80
2022/01/30 01:51:04;;;;;;;69.88;45.80;;;13.50;2201.60;;;;;;6213748;23;20383;-86
2022/01/30 01:53:30;;;;;;;57.72;35.28;;;13.50;2201.60;;;;;;6188159;23;20007;-87
2022/01/30 01:55:56;;;;;;;54.85;35.83;;;13.40;2201.60;;;;;;6188450;23;20003;-87
2022/01/30 01:58:27;;;;;;;53.30;33.35;;;13.40;2201.60;;;;;;6188145;23;20001;-87
2022/01/30 02:00:53;;;;;;;72.40;41.78;;;13.50;2201.60;;;;;;6190605;23;20009;-77
2022/01/30 02:03:22;;;;;;;75.95;42.78;;;13.50;2201.60;;;;;;6190380;23;20004;-87
2022/01/30 02:05:53;;;;;;;58.53;35.58;;;13.60;2201.60;;;;;;6190359;23;20087;-86
2022/01/30 02:27:05;;;;;;;56.55;35.78;;;13.20;2201.60;;;;;;6216476;23;20067;-87
2022/01/30 02:29:32;;;;;;;60.58;37.75;;;13.20;2201.60;;;;;;6190281;23;20027;-87
2022/01/30 02:31:59;;;;;;;59.63;38.30;;;13.10;2201.60;;;;;;6188716;23;20013;-89
2022/01/30 02:34:30;;;;;;;92.40;53.25;;;13.30;2201.60;;;;;;6189811;23;20004;-86
2022/01/30 02:36:57;;;;;;;68.90;40.03;;;13.30;2201.60;;;;;;6189915;23;20000;-89
2022/01/30 02:39:24;;;;;;;59.15;38.17;;;13.30;2201.60;;;;;;6189493;23;20000;-86
2022/01/30 02:41:50;;;;;;;61.65;38.65;;;13.40;2201.60;;;;;;6188864;23;20015;-86
2022/01/30 02:44:32;;;;;;;75.32;44.55;;;13.40;2201.60;;;;;;6189685;23;20071;-86
2022/01/30 02:47:02;;;;;;;64.63;37.95;;;13.50;2201.60;;;;;;6211177;23;20011;-84
2022/01/30 02:50:09;;;;;;;58.97;36.50;;;13.50;2201.60;;;;;;6189320;23;20000;-86
2022/01/30 02:52:33;;;;;;;60.78;37.15;;;13.70;2201.60;;;;;;6214941;23;20023;-85
2022/01/30 02:54:59;;;;;;;61.50;38.28;;;38.40;2201.60;;;;;;6189164;23;20004;-86
2022/01/30 02:57:24;;;;;;;61.20;39.00;;;38.40;2201.60;;;;;;6189250;23;19997;-79
2022/01/30 02:59:50;;;;;;;64.03;41.78;;;38.50;2201.60;;;;;;6189834;23;20004;-85
2022/01/30 03:02:16;;;;;;;67.38;40.83;;;38.50;2201.60;;;;;;6188281;23;20331;-87
2022/01/30 03:04:42;;;;;;;77.90;50.22;;;38.70;2201.60;;;;;;6189033;23;20008;-87
2022/01/30 03:07:08;;;;;;;71.18;45.35;;;38.70;2201.60;;;;;;6189392;23;20001;-86
2022/01/30 03:09:34;;;;;;;63.75;42.25;;;38.70;2201.60;;;;;;6191279;23;20009;-84
2022/01/30 03:12:00;;;;;;;66.60;43.58;;;38.70;2201.60;;;;;;6216154;23;20009;-83
2022/01/30 03:14:26;;;;;;;72.25;42.70;;;38.90;2201.60;;;;;;6191370;23;20463;-82
2022/01/30 03:16:53;;;;;;;71.57;36.40;;;38.90;2201.60;;;;;;6189230;23;20364;-83
2022/01/30 03:19:19;;;;;;;65.32;43.00;;;;;;;;;;6215087;23;20043;-80
2022/01/30 03:21:45;;;;;;;65.45;39.33;;;;;;;;;;6215853;23;19996;-88
2022/01/30 03:24:12;;;;;;;75.35;48.45;;;;;;;;;;6189277;23;20023;-79
2022/01/30 03:26:40;;;;;;;71.63;45.17;;;;;;;;;;6189570;23;20028;-86
2022/01/30 03:29:07;;;;;;;78.47;47.00;;;;;;;;;;6189209;23;20011;-86
2022/01/30 03:31:38;;;;;;;108.53;67.35;;;;;;;;;;6187985;23;20012;-84
2022/01/30 03:34:06;;;;;;;93.65;61.72;;;;;;;;;;6188352;23;20011;-77
2022/01/30 03:36:32;;;;;;;79.05;49.05;;;;;;;;;;6188410;23;20008;-76
2022/01/30 03:38:58;;;;;;;76.90;47.95;;;;;;;;;;6214723;23;20444;-76
2022/01/30 03:41:25;;;;;;;87.18;51.55;;;;;;;;;;6215010;23;19997;-75
2022/01/30 03:43:51;;;;;;;93.88;53.00;;;;;;;;;;6214912;23;20007;-75
2022/01/30 03:46:18;;;;;;;160.70;76.50;;;;;;;;;;6215091;23;20323;-76
2022/01/30 03:48:44;;;;;;;99.65;57.72;;;;;;;;;;6213346;23;19993;-76
2022/01/30 03:51:10;;;;;;;103.60;57.72;;;;;;;;;;6186604;23;20012;-76
2022/01/30 03:53:36;;;;;;;84.75;46.35;;;;;;;;;;6214425;23;20005;-75
2022/01/30 03:56:03;;;;;;;80.63;49.15;;;;;;;;;;6187747;23;20012;-75
2022/01/30 03:58:29;;;;;;;79.80;45.90;;;;;;;;;;6213983;23;20015;-75
2022/01/30 04:00:55;;;;;;;81.93;48.38;;;;;;;;;;6187904;23;20030;-76
2022/01/30 04:03:21;;;;;;;74.05;43.40;;;;;;;;;;6187349;23;19996;-76
2022/01/30 04:05:47;;;;;;;71.38;42.45;;;;;;;;;;6213372;23;20023;-75
2022/01/30 04:08:13;;;;;;;75.57;44.63;;;;;;;;;;6187599;23;20041;-75
2022/01/30 04:10:40;;;;;;;77.32;46.60;;;;;;;;;;6214109;23;20059;-76
2022/01/30 04:13:06;;;;;;;84.88;46.95;;;;;;;;;;6187598;23;20004;-75
2022/01/30 04:15:32;;;;;;;74.05;46.25;;;;;;;;;;6187532;23;20046;-76
2022/01/30 04:18:00;;;;;;;72.80;44.25;;;;;;;;;;6213634;23;20004;-76
2022/01/30 04:20:26;;;;;;;71.85;43.85;;;;;;;;;;6187406;23;20001;-76
2022/01/30 04:22:52;;;;;;;68.18;47.25;;;;;;;;;;6187051;23;20091;-76
2022/01/30 04:25:18;;;;;;;64.07;41.67;;;;;;;;;;6187154;23;20012;-75
2022/01/30 04:27:44;;;;;;;63.10;40.38;;;;;;;;;;6187586;23;20001;-75
2022/01/30 04:30:11;;;;;;;77.32;49.63;;;;;;;;;;6187363;23;20016;-76
2022/01/30 04:32:42;;;;;;;69.13;46.30;;;;;;;;;;6213889;23;20432;-75
2022/01/30 04:35:13;;;;;;;78.47;46.30;;;;;;;;;;6214076;23;19997;-77
2022/01/30 04:57:19;;;;;;;89.45;55.33;;;;;;;;;;6214142;23;20008;-75
2022/01/30 04:59:40;;;;;;;90.70;52.05;;;;;;;;;;6193735;23;20050;-75
2022/01/30 05:02:06;;;;;;;83.22;50.28;;;;;;;;;;6211199;23;20005;-75
2022/01/30 05:09:43;;;;;;;69.60;44.70;;;;;;;;;;6213808;23;20091;-75
2022/01/30 05:12:10;;;;;;;77.18;46.13;;;;;;;;;;6213758;23;19993;-75
2022/01/30 05:14:37;;;;;;;65.03;41.33;;;;;;;;;;6213867;23;19996;-75
2022/01/30 05:17:04;;;;;;;68.25;45.85;;;;;;;;;;6187207;23;20325;-75
2022/01/30 05:19:30;;;;;;;75.00;44.90;;;;;;;;;;6187128;23;20454;-75
2022/01/30 05:21:57;;;;;;;69.38;44.60;;;;;;;;;;6213709;23;20001;-75
2022/01/30 05:24:23;;;;;;;66.95;42.45;;;;;;;;;;6186683;23;20017;-75
2022/01/30 05:26:49;;;;;;;74.90;46.15;;;;;;;;;;6213627;23;20008;-75
2022/01/30 05:29:15;;;;;;;77.82;46.65;;;;;;;;;;6212756;23;20001;-76
2022/01/30 05:31:42;;;;;;;83.70;53.05;;;;;;;;;;6213613;23;20015;-75
2022/01/30 05:34:08;;;;;;;80.45;54.20;;;;;;;;;;6189598;23;19997;-75
2022/01/30 05:36:38;;;;;;;104.30;65.03;;;;;;;;;;6190479;23;20000;-76
2022/01/30 05:39:04;;;;;;;97.22;58.70;;;;;;;;;;6216702;23;19993;-75
2022/01/30 05:41:31;;;;;;;98.82;58.30;;;;;;;;;;6216705;23;20108;-76
2022/01/30 05:44:00;;;;;;;85.85;54.20;;;;;;;;;;6217101;23;19997;-75
2022/01/30 05:46:37;;;;;;;92.00;55.15;;;;;;;;;;6216887;23;20089;-75
2022/01/30 05:49:04;;;;;;;87.10;52.60;;;;;;;;;;6216684;23;20084;-75
2022/01/30 05:51:30;;;;;;;82.72;46.53;;;;;;;;;;6216455;23;20088;-75
2022/01/30 05:53:56;;;;;;;71.18;42.40;;;;;;;;;;6190257;23;20103;-75
2022/01/30 05:56:22;;;;;;;83.70;48.05;;;;;;;;;;6190321;23;20031;-76
2022/01/30 05:58:48;;;;;;;82.93;49.00;;;;;;;;;;6216434;23;20002;-77
2022/01/30 06:01:14;;;;;;;93.93;56.00;;;;;;;;;;6216043;23;20027;-75
2022/01/30 06:03:40;;;;;;;81.38;48.30;;;;;;;;;;6216445;23;20000;-76
2022/01/30 06:06:08;;;;;;;75.50;45.10;;;;;;;;;;6216415;23;19996;-76
2022/01/30 06:11:06;;;;;;;58.85;39.13;;;;;;;;;;6217226;23;20343;-75
2022/01/30 06:13:32;;;;;;;60.92;38.42;;;;;;;;;;6190226;23;19997;-75
2022/01/30 06:15:59;;;;;;;59.83;36.80;;;;;;;;;;6216907;23;19997;-76
2022/01/30 06:18:25;;;;;;;61.50;36.03;;;;;;;;;;6190367;23;20059;-75
2022/01/30 06:20:51;;;;;;;66.95;41.13;;;;;;;;;;6190209;23;20432;-77
2022/01/30 06:23:17;;;;;;;64.97;42.53;;;;;;;;;;6216672;23;20031;-75
2022/01/30 06:25:43;;;;;;;60.65;39.50;;;;;;;;;;6188973;23;20103;-76
2022/01/30 06:28:09;;;;;;;65.22;39.10;;;;;;;;;;6190018;23;20482;-78
2022/01/30 06:30:35;;;;;;;63.15;40.15;;;;;;;;;;6190048;23;20039;-75
2022/01/30 06:33:01;;;;;;;81.97;44.17;;;;;;;;;;6216351;23;20368;-75
2022/01/30 06:35:27;;;;;;;66.63;43.70;;;;;;;;;;6190150;23;20001;-76
2022/01/30 06:37:53;;;;;;;71.30;41.50;;;;;;;;;;6216276;23;20001;-76
2022/01/30 06:40:19;;;;;;;80.53;48.70;;;;;;;;;;6216436;23;19993;-76
2022/01/30 06:42:45;;;;;;;93.75;51.72;;;;;;;;;;6216696;23;20491;-74
2022/01/30 06:45:11;;;;;;;76.85;47.03;;;;;;;;;;6188236;23;20028;-76
2022/01/30 06:47:41;;;;;;;82.05;51.10;;;;;;;;;;6214726;23;20473;-76
2022/01/30 06:50:07;;;;;;;71.85;42.80;;;;;;;;;;6214706;23;20005;-76
2022/01/30 06:52:33;;;;;;;59.65;39.22;;;;;;;;;;6214800;23;19996;-77
2022/01/30 06:54:59;;;;;;;81.82;48.35;;;;;;;;;;6187951;23;20563;-75
2022/01/30 06:57:25;;;;;;;91.47;53.97;;;;;;;;;;6214803;23;20028;-75
2022/01/30 06:59:51;;;;;;;87.60;52.38;;;;;;;;;;6188102;23;20001;-77
2022/01/30 07:02:18;;;;;;;98.72;60.33;;;;;;;;;;6214296;23;19996;-77
2022/01/30 07:04:44;;;;;;;101.50;62.47;;;;;;;;;;6213994;23;19993;-74
2022/01/30 07:07:10;;;;;;;113.57;65.43;;;;;;;;;;6187847;23;20444;-78
2022/01/30 07:09:36;;;;;;;84.50;53.63;;;;;;;;;;6214434;23;20714;-74
2022/01/30 07:12:02;;;;;;;94.50;59.92;;;;;;;;;;6187679;23;20471;-75
2022/01/30 07:14:29;;;;;;;76.18;47.47;;;;;;;;;;6187504;23;20005;-78
2022/01/30 07:16:55;;;;;;;57.50;38.20;;;;;;;;;;6214776;23;20028;-75
2022/01/30 07:19:22;;;;;;;68.45;40.83;;;;;;;;;;6213793;23;20003;-75
2022/01/30 07:21:48;;;;;;;81.93;50.38;;;;;;;;;;6187728;23;20075;-76
2022/01/30 07:24:14;;;;;;;100.28;58.80;;;;;;;;;;6214614;23;20020;-87
2022/01/30 07:26:40;;;;;;;85.95;50.88;;;;;;;;;;6188657;23;20004;-89
2022/01/30 07:29:06;;;;;;;67.63;45.80;;;;;;;;;;6189176;23;20004;-86
2022/01/30 07:31:33;;;;;;;57.75;36.47;;;;;;;;;;6188742;23;20058;-87
2022/01/30 07:33:59;;;;;;;51.00;31.25;;;;;;;;;;6216220;23;20319;-89
2022/01/30 07:36:25;;;;;;;50.30;33.97;;;;;;;;;;6189433;23;20083;-88
2022/01/30 07:38:51;;;;;;;47.90;32.72;;;;;;;;;;6189665;23;20008;-89
2022/01/30 07:41:18;;;;;;;57.72;33.83;;;;;;;;;;6189273;23;20055;-87
2022/01/30 07:43:44;;;;;;;45.70;31.60;;;;;;;;;;6189262;23;20008;-90
2022/01/30 07:46:10;;;;;;;62.63;35.63;;;;;;;;;;6189213;23;20104;-86
2022/01/30 07:48:36;;;;;;;57.78;38.05;;;;;;;;;;6189227;23;20313;-87
2022/01/30 07:51:02;;;;;;;62.53;38.72;;;;;;;;;;6189040;23;20116;-88
2022/01/30 07:53:28;;;;;;;56.35;35.80;;;;;;;;;;6188933;23;19996;-86
2022/01/30 07:55:54;;;;;;;69.63;38.22;;;;;;;;;;6189533;23;20001;-89
2022/01/30 07:58:21;;;;;;;56.95;33.60;;;;;;;;;;6190206;23;20001;-88
2022/01/30 08:00:47;;;;;;;45.08;30.42;;;;;;;;;;6189909;23;20004;-88
2022/01/30 08:03:13;;;;;;;68.50;31.05;;;;;;;;;;6215879;23;20012;-88
2022/01/30 08:05:39;;;;;;;54.70;32.47;;;;;;;;;;6189274;23;20003;-86
2022/01/30 08:08:06;;;;;;;61.22;33.10;;;;;;;;;;6188702;23;20001;-87
2022/01/30 08:10:33;;;;;;;58.28;33.15;;;;;;;;;;6188767;23;20020;-85
2022/01/30 08:12:59;;;;;;;63.90;34.25;;;;;;;;;;6188862;23;20000;-84
2022/01/30 08:15:25;;;;;;;65.55;33.90;;;;;;;;;;6189202;23;20043;-87
2022/01/30 08:17:51;;;;;;;68.10;40.90;;;;;;;;;;6189215;23;20455;-84
2022/01/30 08:20:18;;;;;;;57.80;40.97;;;;;;;;;;6188939;23;20012;-89
2022/01/30 08:22:51;;;;;;;72.85;38.00;;;;;;;;;;6189384;23;20067;-88
2022/01/30 08:25:18;;;;;;;73.95;37.97;;;;;;;;;;6215882;23;20423;-91
2022/01/30 08:27:44;;;;;;;78.30;40.63;;;;;;;;;;6188898;23;20005;-87
2022/01/30 08:30:11;;;;;;;66.65;36.67;;;;;;;;;;6188861;23;20005;-88
2022/01/30 08:32:45;;;;;;;63.63;36.08;;;;;;;;;;6189116;23;20332;-92
2022/01/30 08:35:12;;;;;;;62.38;37.40;;;;;;;;;;6190266;23;20499;-91
2022/01/30 08:37:38;;;;;;;66.55;38.83;;;;;;;;;;6189802;23;20131;-90
2022/01/30 08:40:05;;;;;;;66.38;40.42;;;;;;;;;;6189938;23;20127;-88
2022/01/30 08:42:32;;;;;;;64.05;40.67;;;;;;;;;;6189667;23;20000;-89
2022/01/30 08:44:58;;;;;;;70.70;42.53;;;;;;;;;;6189474;23;20032;-87
2022/01/30 08:47:24;;;;;;;65.20;38.72;;;;;;;;;;6189447;23;20001;-87
2022/01/30 08:49:50;;;;;;;67.57;41.83;;;;;;;;;;6189293;23;19997;-88
2022/01/30 08:52:19;;;;;;;69.88;42.65;;;;;;;;;;6189667;23;20027;-88
2022/01/30 08:54:45;;;;;;;62.60;40.25;;;;;;;;;;6190239;23;19999;-89
2022/01/30 08:57:11;;;;;;;61.38;37.92;;;;;;;;;;6190282;23;20008;-88
2022/01/30 08:59:37;;;;;;;62.58;38.13;;;;;;;;;;6219658;23;19996;-91
2022/01/30 09:02:03;;;;;;;57.47;40.33;;;;;;;;;;6190218;23;20325;-86
2022/01/30 09:04:30;;;;;;;70.95;39.60;;;;;;;;;;6193639;23;20001;-96
2022/01/30 09:06:56;;;;;;;67.50;40.28;;;;;;;;;;6193093;23;20363;-77
2022/01/30 09:09:22;;;;;;;65.35;39.65;;;;;;;;;;6214225;23;20072;-75
2022/01/30 09:11:48;;;;;;;54.35;35.97;;;;;;;;;;6214642;23;20091;-77
2022/01/30 09:14:15;;;;;;;59.47;35.65;;;;;;;;;;6187699;23;20417;-75
2022/01/30 09:16:41;;;;;;;67.75;36.08;;;;;;;;;;6213766;23;20001;-75
2022/01/30 09:19:07;;;;;;;57.03;36.10;;;;;;;;;;6187593;23;20095;-75
2022/01/30 09:21:33;;;;;;;55.38;37.28;;;;;;;;;;6213965;23;20055;-75
2022/01/30 09:23:59;;;;;;;49.05;32.33;;;;;;;;;;6186531;23;20083;-76
2022/01/30 09:26:25;;;;;;;52.95;32.22;;;;;;;;;;6213027;23;20418;-74
2022/01/30 09:28:51;;;;;;;56.08;34.83;;;;;;;;;;6185829;23;20000;-77
2022/01/30 09:31:17;;;;;;;57.15;36.20;;;;;;;;;;6185778;23;20076;-75
2022/01/30 09:33:43;;;;;;;62.50;39.30;;;;;;;;;;6212437;23;20001;-76
2022/01/30 09:36:10;;;;;;;59.88;35.58;;;;;;;;;;6186411;23;20031;-75
2022/01/30 09:38:36;;;;;;;56.13;37.80;;;;;;;;;;6214396;23;20008;-78
2022/01/30 09:41:04;;;;;;;57.22;35.92;;;;;;;;;;6187971;23;20023;-74
2022/01/30 09:43:30;;;;;;;48.05;33.50;;;;;;;;;;6214574;23;20004;-76
2022/01/30 09:45:58;;;;;;;54.03;34.45;;;;;;;;;;6214520;23;19999;-74
2022/01/30 09:48:24;;;;;;;62.03;34.42;;;;;;;;;;6214496;23;20344;-75
2022/01/30 09:50:52;;;;;;;56.63;35.85;;;;;;;;;;6214062;23;20017;-75
2022/01/30 09:53:18;;;;;;;51.28;36.97;;;;;;;;;;6214358;23;19996;-75
2022/01/30 09:55:44;;;;;;;62.42;41.55;;;;;;;;;;6187447;23;20001;-75
2022/01/30 09:58:10;;;;;;;64.47;40.80;;;;;;;;;;6187745;23;20005;-76
2022/01/30 10:00:36;;;;;;;55.85;33.88;;;;;;;;;;6213085;23;20067;-78
2022/01/30 10:03:02;;;;;;;58.53;33.83;;;;;;;;;;6214119;23;20039;-78
2022/01/30 10:05:33;;;;;;;53.97;34.80;;;;;;;;;;6213250;23;19996;-77
2022/01/30 10:08:00;;;;;;;55.20;33.22;;;;;;;;;;6213952;23;20067;-77
2022/01/30 10:10:29;;;;;;;58.42;34.53;;;;;;;;;;6213860;23;20419;-77
2022/01/30 10:13:09;;;;;;;61.03;37.22;;;;;;;;;;6213731;23;20016;-78
2022/01/30 10:15:52;;;;;;;53.72;35.92;;;;;;;;;;6213962;23;20000;-77
2022/01/30 10:18:19;;;;;;;54.13;37.60;;;;;;;;;;6187296;23;20000;-74
2022/01/30 10:20:45;;;;;;;58.55;38.05;;;205.40;1408.00;;;;;;6188382;23;20379;-75
2022/01/30 10:23:12;;;;;;;54.15;33.45;;;205.30;1408.00;;;;;;6215691;23;19996;-74
2022/01/30 10:25:39;;;;;;;46.33;32.10;;;;;;;;;;6215500;23;20040;-76
2022/01/30 10:28:11;;;;;;;47.47;30.58;;;;;;;;;;6187761;23;20016;-74
2022/01/30 10:30:49;;;;;;;47.55;31.60;;;205.70;1331.20;;;;;;6188523;23;20013;-75
2022/01/30 10:33:17;;;;;;;57.67;34.05;;;205.30;1331.20;;;;;;6215562;23;20444;-75
2022/01/30 10:35:49;;;;;;;46.78;31.75;;;204.90;1408.00;;;;;;6215246;23;20004;-75
2022/01/30 10:38:19;;;;;;;43.75;29.25;;;;;;;;;;6215713;23;20356;-75
2022/01/30 10:40:52;;;;;;;39.40;27.52;;;;;;;;;;6214739;23;20000;-74
2022/01/30 10:43:18;;;;;;;62.03;40.25;;;;;;;;;;6214700;23;20000;-75
2022/01/30 10:45:44;;;;;;;52.08;36.58;;;;;;;;;;6215231;23;20028;-75
2022/01/30 10:48:17;;;;;;;49.90;33.60;;;;;;;;;;6187959;23;20040;-76
2022/01/30 10:50:46;;;;;;;44.85;32.30;;;;;;;;;;6188816;23;20447;-78
2022/01/30 10:53:19;;;;;;;49.97;33.92;;;;;;;;;;6188721;23;20000;-76
2022/01/30 10:55:46;;;;;;;;;;;;;;;;;;6189130;23;20514;-76
2022/01/30 10:58:14;;;;;;;65.18;39.88;;;;;;;;;;6188274;23;19978;-75
2022/01/30 11:00:40;;;;;;;48.88;34.95;;;;;;;;;;6188698;23;20084;-77
2022/01/30 11:03:06;;;;;;;50.85;36.67;;;;;;;;;;6188685;23;20001;-76
2022/01/30 11:05:50;;;;;;;49.55;36.03;;;;;;;;;;6213496;23;19993;-76
2022/01/30 11:08:16;;;;;;;;;;;;;;;;;;6190607;23;20463;-77
2022/01/30 11:10:44;;;;;;;48.90;35.25;;;;;;;;;;6214753;23;19912;-76
2022/01/30 11:13:14;;;;;;;64.50;39.40;;;;;;;;;;6215235;23;20112;-77
2022/01/30 11:15:43;;;;;;;52.90;39.92;;;;;;;;;;6187315;23;20477;-78
2022/01/30 11:18:12;;;;;;;51.15;35.33;;;;;;;;;;6214343;23;20001;-79
2022/01/30 11:20:38;;;;;;;53.92;38.42;;;;;;;;;;6188115;23;20035;-79
2022/01/30 11:23:04;;;;;;;66.40;38.08;;;;;;;;;;6213973;23;20031;-77
2022/01/30 11:25:35;;;;;;;56.45;39.00;;;;;;;;;;6214878;23;20032;-77
2022/01/30 11:28:05;;;;;;;53.40;33.65;;;;;;;;;;6187177;23;20047;-77
2022/01/30 11:30:32;;;;;;;57.20;38.88;;;;;;;;;;6187219;23;20340;-77
2022/01/30 11:32:59;;;;;;;51.80;31.27;;;;;;;;;;6188402;23;20001;-78
2022/01/30 11:35:25;;;;;;;38.35;23.92;;;;;;;;;;6188040;23;20011;-79
2022/01/30 11:37:51;;;;;;;36.80;22.00;;;;;;;;;;6188379;23;20008;-80
2022/01/30 11:40:19;;;;;;;26.88;13.55;;;;;;;;;;6187745;23;20016;-76
2022/01/30 11:42:47;;;;;;;25.75;12.90;;;;;;;;;;6184308;23;20004;-76
2022/01/30 11:45:17;;;;;;;20.83;12.23;;;;;;;;;;6183613;23;20004;-77
2022/01/30 11:47:43;;;;;;;22.38;15.68;;;;;;;;;;6186124;23;20032;-74
2022/01/30 11:50:09;;;;;;;24.20;16.02;;;;;;;;;;6187574;23;20012;-77
2022/01/30 11:52:49;;;;;;;22.80;15.82;;;;;;;;;;6214120;23;19996;-77
2022/01/30 11:55:33;;;;;;;24.98;15.48;;;;;;;;;;6187674;23;20000;-76
2022/01/30 11:57:59;;;;;;;20.15;13.88;;;;;;;;;;6186686;23;20012;-75
2022/01/30 12:00:37;;;;;;;20.70;12.00;;;;;;;;;;6186741;23;20332;-77
2022/01/30 12:03:26;;;;;;;25.10;12.80;;;;;;;;;;6186005;23;20008;-77
2022/01/30 12:05:52;;;;;;;20.92;13.98;;;;;;;;;;6186539;23;20034;-77
2022/01/30 12:08:46;;;;;;;22.27;14.15;;;358.60;947.20;;;;;;6186993;23;20076;-76
2022/01/30 12:14:04;;;;;;;32.40;19.77;;;333.10;998.40;;;;;;6213585;23;20163;-78
2022/01/30 12:16:52;;;;;;;28.45;17.73;;;307.70;998.40;;;;;;6213737;23;19992;-77
2022/01/30 12:22:16;;;;;;;27.30;18.50;;;308.10;1024.00;;;;;;6212882;23;20344;-77
2022/01/30 12:24:42;;;;;;;30.70;16.63;;;;;;;;;;6213972;23;20062;-78
2022/01/30 12:27:09;;;;;;;22.65;13.50;;;;;;;;;;6187321;23;20011;-77
2022/01/30 12:29:35;;;;;;;28.95;15.98;;;;;;;;;;6186539;23;20060;-77
2022/01/30 12:32:24;;;;;;;29.63;18.08;;;;;;;;;;6211681;23;20012;-75
2022/01/30 12:34:53;;;;;;;23.77;17.83;;;;;;;;;;6166111;23;20063;-76
2022/01/30 12:37:20;;;;;;;25.00;16.73;;;;;;;;;;6211950;23;20030;-77
2022/01/30 12:39:46;;;;;;;30.50;18.90;;;;;;;;;;6187126;23;20443;-78
2022/01/30 12:42:15;;;;;;;20.45;15.70;;;;;;;;;;6186748;23;20088;-77
2022/01/30 12:44:42;;;;;;;35.22;26.60;;;;;;;;;;6186873;23;20011;-77
2022/01/30 12:47:08;;;;;;;28.90;18.52;;;;;;;;;;6214439;23;20412;-77
2022/01/30 12:49:42;;;;;;;31.60;23.02;;;;;;;;;;6213961;23;20001;-79
2022/01/30 12:52:16;;;;;;;23.55;16.35;;;;;;;;;;6213657;23;20035;-79
2022/01/30 12:54:44;;;;;;;24.08;16.40;;;;;;;;;;6213423;23;20459;-78
2022/01/30 12:57:10;;;;;;;19.75;15.02;;;;;;;;;;6212730;23;20068;-79
2022/01/30 12:59:36;;;;;;;21.88;15.65;;;;;;;;;;6213433;23;20027;-78
2022/01/30 13:02:07;;;;;;;17.58;11.90;;;;;;;;;;6187021;23;20500;-78
2022/01/30 13:04:33;;;;;;;25.90;15.18;;;;;;;;;;6213959;23;20042;-78
2022/01/30 13:06:59;;;;;;;18.25;12.57;;;;;;;;;;6213346;23;20000;-78
2022/01/30 13:09:26;;;;;;;31.00;17.38;;;;;;;;;;6186228;23;20003;-76
2022/01/30 13:11:56;;;;;;;23.35;15.68;;;;;;;;;;6213571;23;20084;-77
2022/01/30 13:14:23;;;;;;;25.88;14.85;;;;;;;;;;6216834;23;20035;-77
2022/01/30 13:16:50;;;;;;;44.60;31.60;;;;;;;;;;6187425;23;20336;-77
2022/01/30 13:19:28;;;;;;;43.42;30.10;;;;;;;;;;6213742;23;19997;-76
2022/01/30 13:21:54;;;;;;;39.13;30.80;;;;;;;;;;6187024;23;20469;-79
2022/01/30 13:24:20;;;;;;;50.08;34.05;;;;;;;;;;6213663;23;20012;-77
2022/01/30 13:26:48;;;;;;;48.75;36.15;;;;;;;;;;6213607;23;20157;-78
2022/01/30 13:29:15;;;;;;;53.97;38.97;;;;;;;;;;6187398;23;20035;-79
2022/01/30 13:31:42;;;;;;;52.92;40.65;;;;;;;;;;6186932;23;20031;-77
2022/01/30 13:34:21;;;;;;;57.35;39.70;;;;;;;;;;6214053;23;20028;-80
2022/01/30 13:36:54;;;;;;;62.28;38.67;;;;;;;;;;6213646;23;20495;-80
2022/01/30 13:39:27;;;;;;;64.93;39.83;;;;;;;;;;6213751;23;20000;-77
2022/01/30 13:42:14;;;;;;;51.75;39.63;;;;;;;;;;6213651;23;20016;-78
2022/01/30 13:45:04;;;;;;;43.95;34.80;;;;;;;;;;6213819;23;20007;-78
2022/01/30 13:47:29;;;;;;;40.28;32.78;;;;;;;;;;6210837;23;20012;-78
2022/01/30 13:49:55;;;;;;;38.22;31.13;;;;;;;;;;6212764;23;20027;-79
2022/01/30 13:52:21;;;;;;;48.97;34.10;;;;;;;;;;6185468;23;20102;-77
2022/01/30 13:55:01;;;;;;;49.60;36.13;;;;;;;;;;6214157;23;20019;-78
2022/01/30 13:57:35;;;;;;;59.13;41.00;;;;;;;;;;6214668;23;20313;-78
2022/01/30 14:00:00;;;;;;;;;;;;;;;;;;6215785;23;20039;-77
2022/01/30 14:02:26;;;;;;;64.90;43.42;;;;;;;;;;6215688;23;19900;-79
2022/01/30 14:04:52;;;;;;;52.20;42.50;;;;;;;;;;6188902;23;20001;-79
2022/01/30 14:07:20;;;;;;;57.50;41.47;;;;;;;;;;6216070;23;20004;-80
2022/01/30 14:09:49;;;;;;;62.88;44.55;;;;;;;;;;6216144;23;20139;-78
2022/01/30 14:12:16;;;;;;;60.15;43.33;;;;;;;;;;6216295;23;20009;-78
2022/01/30 14:14:42;;;;;;;58.83;46.60;;;;;;;;;;6215989;23;20467;-79
2022/01/30 14:17:14;;;;;;;86.47;49.65;;;;;;;;;;6191000;23;20004;-76
2022/01/30 14:19:48;;;;;;;71.20;52.17;;;;;;;;;;6216428;23;20021;-78
2022/01/30 14:22:19;;;;;;;67.00;55.92;;;;;;;;;;6189920;23;20007;-78
2022/01/30 14:24:55;;;;;;;64.22;51.00;;;;;;;;;;6216648;23;20031;-79
2022/01/30 14:27:23;;;;;;;75.07;55.45;;;;;;;;;;6220233;23;20039;-81
2022/01/30 14:29:53;;;;;;;73.72;56.00;;;;;;;;;;6190588;23;20000;-80
2022/01/30 14:32:22;;;;;;;59.88;49.28;;;;;;;;;;6188409;23;20020;-80
2022/01/30 14:34:49;;;;;;;55.38;47.85;;;;;;;;;;6216010;23;20052;-80
2022/01/30 14:37:16;;;;;;;55.42;46.50;;;;;;;;;;6189744;23;20371;-79
2022/01/30 14:39:42;;;;;;;64.93;46.53;;;;;;;;;;6189992;23;20089;-79
2022/01/30 14:42:10;;;;;;;73.68;53.50;;;;;;;;;;6189934;23;20000;-78
2022/01/30 14:44:37;;;;;;;89.03;56.67;;;;;;;;;;6215360;23;20454;-80
2022/01/30 14:47:04;;;;;;;81.53;63.80;;;;;;;;;;6215742;23;20012;-77
2022/01/30 14:49:30;;;;;;;72.85;60.58;;;;;;;;;;6215811;23;20554;-77
2022/01/30 14:51:56;;;;;;;78.70;61.92;;;;;;;;;;6189370;23;20016;-78
2022/01/30 14:54:23;;;;;;;65.20;44.88;;;;;;;;;;6188426;23;20080;-76